sensor_id;sensor_type;location;lat;lon;timestamp;pressure;altitude;pressure_sealevel;temperature;humidity
69574;BME280;62840;52.366;5.980;2023-04-05T00:00:46;102468.97;;;1.94;60.79
69574;BME280;62840;52.366;5.980;2023-04-05T00:03:12;102462.84;;;1.94;61.13
69574;BME280;62840;52.366;5.980;2023-04-05T00:05:38;102457.66;;;1.90;60.99
69574;BME280;62840;52.366;5.980;2023-04-05T00:08:04;102456.78;;;1.90;61.17
69574;BME280;62840;52.366;5.980;2023-04-05T00:10:33;102452.44;;;1.87;60.92
69574;BME280;62840;52.366;5.980;2023-04-05T00:12:59;102459.50;;;1.85;61.13
69574;BME280;62840;52.366;5.980;2023-04-05T00:15:26;102467.47;;;1.82;61.47
69574;BME280;62840;52.366;5.980;2023-04-05T00:17:52;102460.53;;;1.78;61.48
69574;BME280;62840;52.366;5.980;2023-04-05T00:20:18;102457.06;;;1.75;61.47
69574;BME280;62840;52.366;5.980;2023-04-05T00:22:44;102466.72;;;1.74;61.63
69574;BME280;62840;52.366;5.980;2023-04-05T00:25:10;102452.75;;;1.72;61.54
69574;BME280;62840;52.366;5.980;2023-04-05T00:27:42;102456.31;;;1.69;61.43
69574;BME280;62840;52.366;5.980;2023-04-05T00:30:09;102445.84;;;1.68;61.69
69574;BME280;62840;52.366;5.980;2023-04-05T00:32:35;102441.53;;;1.64;61.63
69574;BME280;62840;52.366;5.980;2023-04-05T00:35:01;102454.59;;;1.67;61.54
69574;BME280;62840;52.366;5.980;2023-04-05T00:37:27;102448.50;;;1.66;61.50
69574;BME280;62840;52.366;5.980;2023-04-05T00:39:52;102442.38;;;1.66;61.61
69574;BME280;62840;52.366;5.980;2023-04-05T00:42:18;102454.69;;;1.64;61.54
69574;BME280;62840;52.366;5.980;2023-04-05T00:44:46;102446.88;;;1.59;61.82
69574;BME280;62840;52.366;5.980;2023-04-05T00:47:12;102442.50;;;1.57;61.78
69574;BME280;62840;52.366;5.980;2023-04-05T00:49:39;102447.84;;;1.54;62.08
69574;BME280;62840;52.366;5.980;2023-04-05T00:52:05;102444.38;;;1.52;61.96
69574;BME280;62840;52.366;5.980;2023-04-05T00:54:31;102440.91;;;1.49;62.00
69574;BME280;62840;52.366;5.980;2023-04-05T00:56:58;102428.72;;;1.45;62.04
69574;BME280;62840;52.366;5.980;2023-04-05T00:59:24;102436.66;;;1.42;62.19
69574;BME280;62840;52.366;5.980;2023-04-05T01:02:34;102441.09;;;1.40;62.35
69574;BME280;62840;52.366;5.980;2023-04-05T01:05:29;102429.78;;;1.37;62.31
69574;BME280;62840;52.366;5.980;2023-04-05T01:08:21;102428.94;;;1.33;62.04
69574;BME280;62840;52.366;5.980;2023-04-05T01:11:12;102424.66;;;1.29;62.18
69574;BME280;62840;52.366;5.980;2023-04-05T01:20:23;102413.44;;;1.21;62.09
69574;BME280;62840;52.366;5.980;2023-04-05T01:23:31;102419.56;;;1.20;62.20
69574;BME280;62840;52.366;5.980;2023-04-05T01:30:14;102412.69;;;1.13;62.51
69574;BME280;62840;52.366;5.980;2023-04-05T01:33:25;102421.50;;;1.08;62.40
69574;BME280;62840;52.366;5.980;2023-04-05T01:39:16;102418.94;;;1.05;62.49
69574;BME280;62840;52.366;5.980;2023-04-05T01:41:48;102413.72;;;1.02;62.35
69574;BME280;62840;52.366;5.980;2023-04-05T01:44:27;102410.25;;;1.00;62.32
69574;BME280;62840;52.366;5.980;2023-04-05T01:53:31;102403.38;;;0.93;62.71
69574;BME280;62840;52.366;5.980;2023-04-05T01:56:17;102401.69;;;0.89;62.71
69574;BME280;62840;52.366;5.980;2023-04-05T01:59:03;102399.13;;;0.87;62.81
69574;BME280;62840;52.366;5.980;2023-04-05T02:02:09;102393.00;;;0.87;62.70
69574;BME280;62840;52.366;5.980;2023-04-05T02:04:52;102388.66;;;0.84;63.12
69574;BME280;62840;52.366;5.980;2023-04-05T02:07:54;102398.28;;;0.84;63.18
69574;BME280;62840;52.366;5.980;2023-04-05T02:10:39;102386.09;;;0.80;63.00
69574;BME280;62840;52.366;5.980;2023-04-05T02:13:47;102394.88;;;0.79;62.90
69574;BME280;62840;52.366;5.980;2023-04-05T02:16:36;102388.81;;;0.75;63.21
69574;BME280;62840;52.366;5.980;2023-04-05T02:22:49;102381.91;;;0.70;63.40
69574;BME280;62840;52.366;5.980;2023-04-05T02:25:56;102388.09;;;0.65;63.46
69574;BME280;62840;52.366;5.980;2023-04-05T02:28:28;102382.91;;;0.62;63.59
69574;BME280;62840;52.366;5.980;2023-04-05T02:31:47;102375.06;;;0.59;63.19
69574;BME280;62840;52.366;5.980;2023-04-05T02:41:20;102377.81;;;0.53;63.43
69574;BME280;62840;52.366;5.980;2023-04-05T02:43:56;102379.63;;;0.48;63.58
69574;BME280;62840;52.366;5.980;2023-04-05T02:46:47;102369.19;;;0.45;63.53
69574;BME280;62840;52.366;5.980;2023-04-05T02:49:56;102370.97;;;0.43;63.51
69574;BME280;62840;52.366;5.980;2023-04-05T02:52:59;102371.03;;;0.40;63.59
69574;BME280;62840;52.366;5.980;2023-04-05T02:56:03;102371.03;;;0.40;63.53
69574;BME280;62840;52.366;5.980;2023-04-05T02:58:58;102373.66;;;0.37;63.36
69574;BME280;62840;52.366;5.980;2023-04-05T03:01:36;102368.47;;;0.35;63.54
69574;BME280;62840;52.366;5.980;2023-04-05T03:04:07;102365.00;;;0.33;63.64
69574;BME280;62840;52.366;5.980;2023-04-05T03:06:40;102370.31;;;0.29;63.44
69574;BME280;62840;52.366;5.980;2023-04-05T03:09:19;102360.69;;;0.28;63.48
69574;BME280;62840;52.366;5.980;2023-04-05T03:11:49;102360.69;;;0.28;63.79
69574;BME280;62840;52.366;5.980;2023-04-05T03:14:19;102367.72;;;0.25;63.36
69574;BME280;62840;52.366;5.980;2023-04-05T03:16:49;102359.00;;;0.23;63.69
69574;BME280;62840;52.366;5.980;2023-04-05T03:19:37;102364.31;;;0.20;63.75
69574;BME280;62840;52.366;5.980;2023-04-05T03:22:05;102361.69;;;0.19;63.63
69574;BME280;62840;52.366;5.980;2023-04-05T03:24:44;102357.38;;;0.16;63.63
69574;BME280;62840;52.366;5.980;2023-04-05T03:27:20;102353.88;;;0.16;63.70
69574;BME280;62840;52.366;5.980;2023-04-05T03:30:16;102344.25;;;0.15;64.08
69574;BME280;62840;52.366;5.980;2023-04-05T03:32:47;102351.28;;;0.14;63.97
69574;BME280;62840;52.366;5.980;2023-04-05T03:35:21;102338.16;;;0.14;63.96
69574;BME280;62840;52.366;5.980;2023-04-05T03:37:56;102345.16;;;0.15;64.06
69574;BME280;62840;52.366;5.980;2023-04-05T03:40:24;102344.25;;;0.15;64.19
69574;BME280;62840;52.366;5.980;2023-04-05T03:43:11;102346.94;;;0.13;64.12
69574;BME280;62840;52.366;5.980;2023-04-05T03:46:02;102348.72;;;0.11;64.30
69574;BME280;62840;52.366;5.980;2023-04-05T03:48:31;102345.25;;;0.09;64.26
69574;BME280;62840;52.366;5.980;2023-04-05T03:51:00;102336.50;;;0.09;63.97
69574;BME280;62840;52.366;5.980;2023-04-05T03:53:31;102346.09;;;0.11;64.11
69574;BME280;62840;52.366;5.980;2023-04-05T03:56:02;102343.47;;;0.11;63.91
69574;BME280;62840;52.366;5.980;2023-04-05T03:58:32;102344.31;;;0.10;63.96
69574;BME280;62840;52.366;5.980;2023-04-05T04:01:15;102346.09;;;0.10;63.99
69574;BME280;62840;52.366;5.980;2023-04-05T04:03:49;102337.38;;;0.09;64.18
69574;BME280;62840;52.366;5.980;2023-04-05T04:06:30;102340.03;;;0.06;64.12
69574;BME280;62840;52.366;5.980;2023-04-05T04:08:59;102339.16;;;0.06;64.09
69574;BME280;62840;52.366;5.980;2023-04-05T04:11:37;102333.94;;;0.04;64.08
69574;BME280;62840;52.366;5.980;2023-04-05T04:14:06;102327.84;;;0.02;64.18
69574;BME280;62840;52.366;5.980;2023-04-05T04:16:41;102335.72;;;0.02;64.15
69574;BME280;62840;52.366;5.980;2023-04-05T04:19:15;102333.13;;;-0.01;64.12
69574;BME280;62840;52.366;5.980;2023-04-05T04:21:43;102332.28;;;-0.02;64.01
69574;BME280;62840;52.366;5.980;2023-04-05T04:24:38;102341.03;;;-0.03;63.99
69574;BME280;62840;52.366;5.980;2023-04-05T04:27:18;102332.31;;;-0.05;64.26
69574;BME280;62840;52.366;5.980;2023-04-05T04:29:55;102331.50;;;-0.08;64.28
69574;BME280;62840;52.366;5.980;2023-04-05T04:32:24;102329.78;;;-0.09;64.42
69574;BME280;62840;52.366;5.980;2023-04-05T04:35:02;102328.94;;;-0.13;64.54
69574;BME280;62840;52.366;5.980;2023-04-05T04:37:51;102336.81;;;-0.14;64.56
69574;BME280;62840;52.366;5.980;2023-04-05T04:40:49;102336.00;;;-0.17;64.64
69574;BME280;62840;52.366;5.980;2023-04-05T04:43:22;102340.38;;;-0.19;64.74
69574;BME280;62840;52.366;5.980;2023-04-05T04:46:34;102329.84;;;-0.17;64.75
69574;BME280;62840;52.366;5.980;2023-04-05T04:49:16;102333.41;;;-0.20;64.63
69574;BME280;62840;52.366;5.980;2023-04-05T04:51:43;102336.00;;;-0.20;64.36
69574;BME280;62840;52.366;5.980;2023-04-05T04:54:19;102329.94;;;-0.22;64.60
69574;BME280;62840;52.366;5.980;2023-04-05T04:56:49;102322.97;;;-0.23;64.57
69574;BME280;62840;52.366;5.980;2023-04-05T04:59:25;102323.88;;;-0.25;64.54
69574;BME280;62840;52.366;5.980;2023-04-05T05:01:52;102320.41;;;-0.27;64.56
69574;BME280;62840;52.366;5.980;2023-04-05T05:04:24;102319.53;;;-0.28;64.54
69574;BME280;62840;52.366;5.980;2023-04-05T05:07:09;102324.78;;;-0.28;64.20
69574;BME280;62840;52.366;5.980;2023-04-05T05:09:38;102319.53;;;-0.28;64.43
69574;BME280;62840;52.366;5.980;2023-04-05T05:12:14;102318.69;;;-0.30;64.53
69574;BME280;62840;52.366;5.980;2023-04-05T05:14:47;102322.19;;;-0.31;64.53
69574;BME280;62840;52.366;5.980;2023-04-05T05:17:22;102316.94;;;-0.31;64.31
69574;BME280;62840;52.366;5.980;2023-04-05T05:20:11;102317.84;;;-0.32;64.48
69574;BME280;62840;52.366;5.980;2023-04-05T05:22:49;102319.56;;;-0.31;64.56
69574;BME280;62840;52.366;5.980;2023-04-05T05:25:23;102316.94;;;-0.29;64.50
69574;BME280;62840;52.366;5.980;2023-04-05T05:27:51;102327.41;;;-0.29;64.64
69574;BME280;62840;52.366;5.980;2023-04-05T05:30:25;102330.91;;;-0.30;64.86
69574;BME280;62840;52.366;5.980;2023-04-05T05:33:12;102316.06;;;-0.30;64.70
69574;BME280;62840;52.366;5.980;2023-04-05T05:35:47;102310.84;;;-0.33;64.86
69574;BME280;62840;52.366;5.980;2023-04-05T05:38:18;102316.09;;;-0.33;64.93
69574;BME280;62840;52.366;5.980;2023-04-05T05:41:09;102313.47;;;-0.31;65.04
69574;BME280;62840;52.366;5.980;2023-04-05T05:43:36;102314.31;;;-0.31;65.07
69574;BME280;62840;52.366;5.980;2023-04-05T05:46:10;102311.69;;;-0.28;64.79
69574;BME280;62840;52.366;5.980;2023-04-05T05:48:52;102315.97;;;-0.24;65.15
69574;BME280;62840;52.366;5.980;2023-04-05T05:51:38;102306.38;;;-0.23;65.02
69574;BME280;62840;52.366;5.980;2023-04-05T05:54:24;102317.72;;;-0.23;65.21
69574;BME280;62840;52.366;5.980;2023-04-05T05:57:09;102308.94;;;-0.22;64.77
69574;BME280;62840;52.366;5.980;2023-04-05T06:00:04;102314.19;;;-0.19;64.99
69574;BME280;62840;52.366;5.980;2023-04-05T06:02:34;102310.66;;;-0.18;64.96
69574;BME280;62840;52.366;5.980;2023-04-05T06:05:15;102314.13;;;-0.15;64.95
69574;BME280;62840;52.366;5.980;2023-04-05T06:07:54;102311.50;;;-0.15;64.99
69574;BME280;62840;52.366;5.980;2023-04-05T06:13:28;102314.06;;;-0.11;65.17
69574;BME280;62840;52.366;5.980;2023-04-05T06:16:18;102323.63;;;-0.07;65.11
69574;BME280;62840;52.366;5.980;2023-04-05T06:18:58;102331.47;;;-0.05;65.23
69574;BME280;62840;52.366;5.980;2023-04-05T06:21:39;102319.19;;;-0.03;65.25
69574;BME280;62840;52.366;5.980;2023-04-05T06:24:24;102323.50;;;0.01;65.15
69574;BME280;62840;52.366;5.980;2023-04-05T06:26:58;102322.63;;;0.02;65.40
69574;BME280;62840;52.366;5.980;2023-04-05T06:29:32;102325.19;;;0.05;65.34
69574;BME280;62840;52.366;5.980;2023-04-05T06:32:05;102326.88;;;0.09;65.29
69574;BME280;62840;52.366;5.980;2023-04-05T06:34:39;102325.94;;;0.13;65.46
69574;BME280;62840;52.366;5.980;2023-04-05T06:37:19;102331.09;;;0.19;65.19
69574;BME280;62840;52.366;5.980;2023-04-05T06:40:06;102324.91;;;0.23;65.41
69574;BME280;62840;52.366;5.980;2023-04-05T06:42:44;102331.81;;;0.29;65.55
69574;BME280;62840;52.366;5.980;2023-04-05T06:45:18;102326.50;;;0.34;65.68
69574;BME280;62840;52.366;5.980;2023-04-05T06:47:53;102332.53;;;0.39;65.24
69574;BME280;62840;52.366;5.980;2023-04-05T06:50:32;102326.25;;;0.48;65.42
69574;BME280;62840;52.366;5.980;2023-04-05T06:53:11;102328.75;;;0.55;65.50
69574;BME280;62840;52.366;5.980;2023-04-05T06:55:55;102324.25;;;0.63;65.11
69574;BME280;62840;52.366;5.980;2023-04-05T06:58:32;102335.50;;;0.72;65.50
69574;BME280;62840;52.366;5.980;2023-04-05T07:01:06;102332.72;;;0.79;65.30
69574;BME280;62840;52.366;5.980;2023-04-05T07:03:35;102329.09;;;0.86;65.46
69574;BME280;62840;52.366;5.980;2023-04-05T07:06:06;102322.78;;;0.95;65.23
69574;BME280;62840;52.366;5.980;2023-04-05T07:08:57;102327.00;;;1.05;65.41
69574;BME280;62840;52.366;5.980;2023-04-05T07:11:35;102321.50;;;1.18;65.22
69574;BME280;62840;52.366;5.980;2023-04-05T07:14:13;102327.41;;;1.29;64.97
69574;BME280;62840;52.366;5.980;2023-04-05T07:16:59;102321.06;;;1.39;64.75
69574;BME280;62840;52.366;5.980;2023-04-05T07:19:30;102324.34;;;1.50;64.66
69574;BME280;62840;52.366;5.980;2023-04-05T07:22:07;102320.66;;;1.59;64.42
69574;BME280;62840;52.366;5.980;2023-04-05T07:24:45;102325.66;;;1.70;64.30
69574;BME280;62840;52.366;5.980;2023-04-05T07:27:33;102319.25;;;1.83;64.15
69574;BME280;62840;52.366;5.980;2023-04-05T07:30:06;102311.97;;;1.95;63.94
69574;BME280;62840;52.366;5.980;2023-04-05T07:32:45;102317.84;;;2.06;63.65
69574;BME280;62840;52.366;5.980;2023-04-05T07:35:22;102322.00;;;2.16;63.71
69574;BME280;62840;52.366;5.980;2023-04-05T07:37:59;102320.94;;;2.25;63.48
69574;BME280;62840;52.366;5.980;2023-04-05T07:40:40;102320.63;;;2.37;63.63
69574;BME280;62840;52.366;5.980;2023-04-05T07:43:21;102314.13;;;2.52;63.25
69574;BME280;62840;52.366;5.980;2023-04-05T07:45:59;102315.59;;;2.62;63.25
69574;BME280;62840;52.366;5.980;2023-04-05T07:48:36;102323.19;;;2.74;63.17
69574;BME280;62840;52.366;5.980;2023-04-05T07:51:06;102323.78;;;2.86;62.71
69574;BME280;62840;52.366;5.980;2023-04-05T07:53:48;102311.19;;;2.97;62.58
69574;BME280;62840;52.366;5.980;2023-04-05T07:56:34;102310.84;;;3.09;62.31
69574;BME280;62840;52.366;5.980;2023-04-05T07:59:20;102308.75;;;3.21;62.42
69574;BME280;62840;52.366;5.980;2023-04-05T08:01:57;102305.88;;;3.30;62.12
69574;BME280;62840;52.366;5.980;2023-04-05T08:04:27;102318.81;;;3.39;61.67
69574;BME280;62840;52.366;5.980;2023-04-05T08:06:57;102312.34;;;3.49;61.51
69574;BME280;62840;52.366;5.980;2023-04-05T08:09:23;102316.38;;;3.61;61.83
69574;BME280;62840;52.366;5.980;2023-04-05T08:11:53;102314.25;;;3.74;61.31
69574;BME280;62840;52.366;5.980;2023-04-05T08:14:27;102319.06;;;3.89;61.38
69574;BME280;62840;52.366;5.980;2023-04-05T08:17:14;102313.31;;;4.05;61.42
69574;BME280;62840;52.366;5.980;2023-04-05T08:19:46;102316.25;;;4.22;61.29
69574;BME280;62840;52.366;5.980;2023-04-05T08:22:40;102313.94;;;4.39;61.14
69574;BME280;62840;52.366;5.980;2023-04-05T08:25:07;102315.25;;;4.53;60.97
69574;BME280;62840;52.366;5.980;2023-04-05T08:27:52;102307.81;;;4.64;60.36
69574;BME280;62840;52.366;5.980;2023-04-05T08:30:47;102307.38;;;4.76;59.91
69574;BME280;62840;52.366;5.980;2023-04-05T08:34:05;102303.53;;;4.87;60.00
69574;BME280;62840;52.366;5.980;2023-04-05T08:36:48;102305.81;;;4.97;59.64
69574;BME280;62840;52.366;5.980;2023-04-05T08:39:48;102302.81;;;5.08;59.75
69574;BME280;62840;52.366;5.980;2023-04-05T08:43:05;102302.31;;;5.22;59.30
69574;BME280;62840;52.366;5.980;2023-04-05T08:46:22;102300.03;;;5.35;58.87
69574;BME280;62840;52.366;5.980;2023-04-05T08:49:47;102296.78;;;5.52;58.69
69574;BME280;62840;52.366;5.980;2023-04-05T08:54:14;102290.03;;;5.66;58.29
69574;BME280;62840;52.366;5.980;2023-04-05T08:56:05;102284.25;;;5.79;58.05
69574;BME280;62840;52.366;5.980;2023-04-05T08:59:04;102296.22;;;5.89;57.71
69574;BME280;62840;52.366;5.980;2023-04-05T09:02:03;102281.69;;;5.99;56.85
69574;BME280;62840;52.366;5.980;2023-04-05T09:05:30;102290.91;;;6.11;56.66
69574;BME280;62840;52.366;5.980;2023-04-05T09:08:36;102275.75;;;6.15;55.32
69574;BME280;62840;52.366;5.980;2023-04-05T09:11:38;102280.81;;;6.21;55.90
69574;BME280;62840;52.366;5.980;2023-04-05T09:14:52;102285.72;;;6.30;55.51
69574;BME280;62840;52.366;5.980;2023-04-05T09:17:57;102285.34;;;6.39;55.54
69574;BME280;62840;52.366;5.980;2023-04-05T09:20:40;102281.50;;;6.46;55.21
69574;BME280;62840;52.366;5.980;2023-04-05T09:23:40;102288.25;;;6.54;54.78
69574;BME280;62840;52.366;5.980;2023-04-05T09:26:45;102288.00;;;6.60;55.18
69574;BME280;62840;52.366;5.980;2023-04-05T09:29:39;102270.84;;;6.68;55.10
69574;BME280;62840;52.366;5.980;2023-04-05T09:38:50;102269.41;;;7.01;54.15
69574;BME280;62840;52.366;5.980;2023-04-05T09:42:14;102271.66;;;7.10;53.71
69574;BME280;62840;52.366;5.980;2023-04-05T09:45:29;102269.53;;;7.18;53.82
69574;BME280;62840;52.366;5.980;2023-04-05T09:48:21;102274.56;;;7.24;53.62
69574;BME280;62840;52.366;5.980;2023-04-05T09:51:54;102264.53;;;7.31;52.75
69574;BME280;62840;52.366;5.980;2023-04-05T09:54:28;102276.72;;;7.35;53.18
69574;BME280;62840;52.366;5.980;2023-04-05T09:57:54;102263.13;;;7.43;52.79
69574;BME280;62840;52.366;5.980;2023-04-05T10:00:55;102270.03;;;7.47;52.28
69574;BME280;62840;52.366;5.980;2023-04-05T10:07:07;102268.44;;;7.62;51.74
69574;BME280;62840;52.366;5.980;2023-04-05T10:10:16;102263.00;;;7.65;51.33
69574;BME280;62840;52.366;5.980;2023-04-05T10:13:07;102265.44;;;7.69;51.47
69574;BME280;62840;52.366;5.980;2023-04-05T10:16:32;102257.06;;;7.77;51.38
69574;BME280;62840;52.366;5.980;2023-04-05T10:19:47;102247.03;;;7.84;51.73
69574;BME280;62840;52.366;5.980;2023-04-05T10:26:06;102247.97;;;8.00;51.11
69574;BME280;62840;52.366;5.980;2023-04-05T10:29:08;102250.91;;;8.13;51.15
69574;BME280;62840;52.366;5.980;2023-04-05T10:32:55;102250.50;;;8.21;50.72
69574;BME280;62840;52.366;5.980;2023-04-05T10:43:01;102238.00;;;8.40;50.00
69574;BME280;62840;52.366;5.980;2023-04-05T10:45:48;102238.50;;;8.48;49.84
69574;BME280;62840;52.366;5.980;2023-04-05T10:49:15;102223.94;;;8.55;49.03
69574;BME280;62840;52.366;5.980;2023-04-05T10:59:06;102218.66;;;8.71;48.07
69574;BME280;62840;52.366;5.980;2023-04-05T11:01:41;102207.78;;;8.76;48.49
69574;BME280;62840;52.366;5.980;2023-04-05T11:04:15;102206.50;;;8.83;48.69
69574;BME280;62840;52.366;5.980;2023-04-05T11:07:12;102203.28;;;8.94;48.82
69574;BME280;62840;52.366;5.980;2023-04-05T11:09:59;102202.47;;;9.09;48.64
69574;BME280;62840;52.366;5.980;2023-04-05T11:13:02;102206.06;;;9.24;47.76
69574;BME280;62840;52.366;5.980;2023-04-05T11:16:09;102193.03;;;9.35;47.36
69574;BME280;62840;52.366;5.980;2023-04-05T11:18:43;102195.13;;;9.46;48.47
69574;BME280;62840;52.366;5.980;2023-04-05T11:21:21;102195.28;;;9.59;47.76
69574;BME280;62840;52.366;5.980;2023-04-05T11:24:13;102185.66;;;9.72;48.12
69574;BME280;62840;52.366;5.980;2023-04-05T11:27:11;102183.81;;;9.89;47.70
69574;BME280;62840;52.366;5.980;2023-04-05T11:29:49;102183.06;;;10.01;46.53
69574;BME280;62840;52.366;5.980;2023-04-05T11:32:44;102179.22;;;10.07;45.99
69574;BME280;62840;52.366;5.980;2023-04-05T11:35:26;102183.13;;;10.15;46.92
69574;BME280;62840;52.366;5.980;2023-04-05T11:38:08;102180.00;;;10.23;46.25
69574;BME280;62840;52.366;5.980;2023-04-05T11:40:37;102179.66;;;10.29;46.20
69574;BME280;62840;52.366;5.980;2023-04-05T11:43:10;102170.22;;;10.38;46.29
69574;BME280;62840;52.366;5.980;2023-04-05T11:46:00;102171.28;;;10.50;46.04
69574;BME280;62840;52.366;5.980;2023-04-05T11:48:36;102164.63;;;10.57;45.51
69574;BME280;62840;52.366;5.980;2023-04-05T11:51:11;102175.00;;;10.61;45.70
69574;BME280;62840;52.366;5.980;2023-04-05T11:53:52;102162.56;;;10.62;45.13
69574;BME280;62840;52.366;5.980;2023-04-05T11:56:21;102163.97;;;10.67;45.66
69574;BME280;62840;52.366;5.980;2023-04-05T11:58:50;102156.34;;;10.76;44.93
69574;BME280;62840;52.366;5.980;2023-04-05T12:01:18;102156.63;;;10.85;44.97
69574;BME280;62840;52.366;5.980;2023-04-05T12:03:57;102148.16;;;10.93;44.65
69574;BME280;62840;52.366;5.980;2023-04-05T12:06:26;102142.44;;;10.99;45.18
69574;BME280;62840;52.366;5.980;2023-04-05T12:08:52;102147.38;;;11.05;44.27
69574;BME280;62840;52.366;5.980;2023-04-05T12:11:24;102152.34;;;11.12;44.50
69574;BME280;62840;52.366;5.980;2023-04-05T12:13:53;102145.75;;;11.17;44.61
69574;BME280;62840;52.366;5.980;2023-04-05T12:16:23;102144.50;;;11.23;44.00
69574;BME280;62840;52.366;5.980;2023-04-05T12:19:03;102137.25;;;11.25;43.87
69574;BME280;62840;52.366;5.980;2023-04-05T12:21:29;102137.59;;;11.33;44.44
69574;BME280;62840;52.366;5.980;2023-04-05T12:23:55;102130.88;;;11.40;43.31
69574;BME280;62840;52.366;5.980;2023-04-05T12:26:24;102123.63;;;11.42;43.11
69574;BME280;62840;52.366;5.980;2023-04-05T12:28:52;102125.91;;;11.48;43.31
69574;BME280;62840;52.366;5.980;2023-04-05T12:31:40;102124.34;;;11.59;43.17
69574;BME280;62840;52.366;5.980;2023-04-05T12:34:25;102123.31;;;11.74;43.38
69574;BME280;62840;52.366;5.980;2023-04-05T12:36:57;102122.69;;;11.83;43.81
69574;BME280;62840;52.366;5.980;2023-04-05T12:39:27;102115.75;;;11.94;43.55
69574;BME280;62840;52.366;5.980;2023-04-05T12:41:57;102116.66;;;12.07;43.62
69574;BME280;62840;52.366;5.980;2023-04-05T12:44:35;102114.31;;;12.15;43.06
69574;BME280;62840;52.366;5.980;2023-04-05T12:47:07;102111.19;;;12.21;42.98
69574;BME280;62840;52.366;5.980;2023-04-05T12:49:41;102118.50;;;12.32;42.54
69574;BME280;62840;52.366;5.980;2023-04-05T12:52:18;102108.66;;;12.32;41.68
69574;BME280;62840;52.366;5.980;2023-04-05T12:54:55;102108.66;;;12.32;42.14
69574;BME280;62840;52.366;5.980;2023-04-05T12:57:36;102107.56;;;12.35;41.91
69574;BME280;62840;52.366;5.980;2023-04-05T13:00:07;102104.81;;;12.37;41.35
69574;BME280;62840;52.366;5.980;2023-04-05T13:02:39;102092.19;;;12.39;41.62
69574;BME280;62840;52.366;5.980;2023-04-05T13:05:10;102089.41;;;12.40;41.94
69574;BME280;62840;52.366;5.980;2023-04-05T13:07:38;102087.59;;;12.41;41.29
69574;BME280;62840;52.366;5.980;2023-04-05T13:10:14;102078.47;;;12.43;41.28
69574;BME280;62840;52.366;5.980;2023-04-05T13:12:40;102082.75;;;12.46;40.73
69574;BME280;62840;52.366;5.980;2023-04-05T13:15:11;102073.97;;;12.44;40.88
69574;BME280;62840;52.366;5.980;2023-04-05T13:17:40;102080.72;;;12.49;40.98
69574;BME280;62840;52.366;5.980;2023-04-05T13:20:10;102078.47;;;12.56;41.18
69574;BME280;62840;52.366;5.980;2023-04-05T13:22:38;102074.63;;;12.60;40.71
69574;BME280;62840;52.366;5.980;2023-04-05T13:25:07;102065.84;;;12.58;40.86
69574;BME280;62840;52.366;5.980;2023-04-05T13:27:36;102071.59;;;12.65;41.35
69574;BME280;62840;52.366;5.980;2023-04-05T13:30:03;102063.25;;;12.69;40.22
69574;BME280;62840;52.366;5.980;2023-04-05T13:32:32;102072.69;;;12.62;40.04
69574;BME280;62840;52.366;5.980;2023-04-05T13:34:59;102055.97;;;12.59;39.89
69574;BME280;62840;52.366;5.980;2023-04-05T13:37:32;102061.22;;;12.60;40.89
69574;BME280;62840;52.366;5.980;2023-04-05T13:40:10;102065.19;;;12.67;39.68
69574;BME280;62840;52.366;5.980;2023-04-05T13:42:38;102052.75;;;12.66;39.47
69574;BME280;62840;52.366;5.980;2023-04-05T13:45:06;102047.63;;;12.63;40.15
69574;BME280;62840;52.366;5.980;2023-04-05T13:47:38;102049.13;;;12.67;40.25
69574;BME280;62840;52.366;5.980;2023-04-05T13:50:06;102044.16;;;12.74;40.31
69574;BME280;62840;52.366;5.980;2023-04-05T13:52:36;102042.66;;;12.83;40.50
69574;BME280;62840;52.366;5.980;2023-04-05T13:55:04;102031.47;;;12.89;40.19
69574;BME280;62840;52.366;5.980;2023-04-05T13:57:31;102025.25;;;12.88;40.00
69574;BME280;62840;52.366;5.980;2023-04-05T13:59:59;102031.47;;;12.89;40.20
69574;BME280;62840;52.366;5.980;2023-04-05T14:02:27;102025.91;;;12.92;40.18
69574;BME280;62840;52.366;5.980;2023-04-05T14:04:54;102034.44;;;12.97;40.01
69574;BME280;62840;52.366;5.980;2023-04-05T14:07:24;102025.66;;;12.95;39.95
69574;BME280;62840;52.366;5.980;2023-04-05T14:09:58;102019.56;;;12.93;40.13
69574;BME280;62840;52.366;5.980;2023-04-05T14:12:36;102019.81;;;12.90;39.90
69574;BME280;62840;52.366;5.980;2023-04-05T14:15:05;102013.94;;;12.85;39.25
69574;BME280;62840;52.366;5.980;2023-04-05T14:17:35;102011.19;;;12.73;39.78
69574;BME280;62840;52.366;5.980;2023-04-05T14:20:05;102015.28;;;12.66;39.99
69574;BME280;62840;52.366;5.980;2023-04-05T14:22:32;101999.69;;;12.60;40.16
69574;BME280;62840;52.366;5.980;2023-04-05T14:25:00;102003.53;;;12.56;39.41
69574;BME280;62840;52.366;5.980;2023-04-05T14:27:29;102000.56;;;12.48;40.14
69574;BME280;62840;52.366;5.980;2023-04-05T14:29:59;101996.38;;;12.44;40.19
69574;BME280;62840;52.366;5.980;2023-04-05T14:32:28;101997.25;;;12.44;40.30
69574;BME280;62840;52.366;5.980;2023-04-05T14:34:55;101986.66;;;12.43;39.49
69574;BME280;62840;52.366;5.980;2023-04-05T14:37:25;101992.69;;;12.33;39.35
69574;BME280;62840;52.366;5.980;2023-04-05T14:39:54;101985.38;;;12.23;39.56
69574;BME280;62840;52.366;5.980;2023-04-05T14:42:26;101984.72;;;12.19;40.02
69574;BME280;62840;52.366;5.980;2023-04-05T14:45:11;101982.19;;;12.18;40.40
69574;BME280;62840;52.366;5.980;2023-04-05T14:47:38;101978.66;;;12.17;40.24
69574;BME280;62840;52.366;5.980;2023-04-05T14:50:06;101981.22;;;12.19;40.32
69574;BME280;62840;52.366;5.980;2023-04-05T14:52:36;101980.34;;;12.18;39.43
69574;BME280;62840;52.366;5.980;2023-04-05T14:55:08;101972.75;;;12.12;39.68
69574;BME280;62840;52.366;5.980;2023-04-05T14:57:37;101978.13;;;12.12;40.03
69574;BME280;62840;52.366;5.980;2023-04-05T15:00:13;101969.16;;;12.13;39.72
69574;BME280;62840;52.366;5.980;2023-04-05T15:02:52;101968.41;;;12.11;40.07
69574;BME280;62840;52.366;5.980;2023-04-05T15:05:35;101965.91;;;12.08;39.11